• Join FlightAware (Why Join?)
  • Login
  • US Flag 
07:48AM EDT


 

Airport Tracker/Info


-or-


 

Live Flight TrackerFlight Track Log ✈ N706CJ ✈ 12-May-2013 ✈ KBCT - KCGF

Flight Track Log - Related Links

Times and Time Zones

All times are in EDT time to prevent confusion due to time zone crossing. See the N706CJ flight status page for this flight to view local times or setup timezone preferences in your user account.

Time Position Orientation Groundspeed Altitude Reporting Facility
EDT Latitude Longitude Course Direction KTS MPH feet Rate Location/Type
09:01AM 26.4575 -80.2122 336° Northwest 279 321 6,500  Level Miami Center
09:02AM 26.4831 -80.2825 292° West 266 306 9,100 3,060 Climbing Miami Center
09:03AM 26.5208 -80.3672 297° West 272 313 12,700 3,300 Climbing Miami Center
09:04AM 26.5931 -80.4019 337° Northwest 291 335 15,700 2,700 Climbing Miami Center
09:05AM 26.8530 -80.5365 342° North  Level FlightAware Approximate
09:05AM 26.6900 -80.4489 337° Northwest 329 379 18,100  Level Miami Center
09:06AM 26.9560 -80.5780 336° Northwest  Level FlightAware Approximate
09:06AM 26.7725 -80.4864 338° Northwest 353 406 20,400  Level Miami Center
09:07AM 26.8633 -80.5333 335° Northwest 353 406 22,600 2,100 Climbing Miami Center
09:08AM 26.9625 -80.5739 340° North 363 418 24,600 1,980 Climbing Miami Center
09:09AM 27.0658 -80.6122 342° North 376 433 26,600 1,980 Climbing Miami Center
09:10AM 27.1781 -80.6322 351° North 386 444 28,600 1,920 Climbing Miami Center
09:11AM 27.2928 -80.6383 357° North 404 465 30,500 1,920 Climbing Miami Center
09:12AM 27.4053 -80.6489 355° North 409 471 32,500 1,860 Climbing Miami Center
09:13AM 27.5200 -80.6550 357° North 404 465 34,300 1,620 Climbing Miami Center
09:14AM 27.6211 -80.7006 338° Northwest 394 453 35,800 1,440 Climbing Miami Center
09:15AM 27.7242 -80.7486 338° Northwest 394 453 37,200 1,500 Climbing Miami Center
09:16AM 27.8294 -80.7944 339° North 394 453 38,800 1,500 Climbing Miami Center
09:17AM 27.9325 -80.8403 339° North 399 459 40,200 1,080 Climbing Miami Center
09:18AM 28.0356 -80.8886 338° Northwest 404 465 41,000 360 Climbing Miami Center
09:19AM 28.1406 -80.9347 339° North 399 459 41,000  Level Miami Center
09:20AM 28.2414 -80.9808 338° Northwest 399 459 41,000  Level Miami Center
09:21AM 28.3467 -81.0269 339° North 399 459 41,000  Level Miami Center
09:22AM 28.4536 -81.0783 337° Northwest 399 459 41,000  Level Miami Center
09:23AM 28.5564 -81.1247 338° Northwest 399 459 41,000  Level Miami Center
09:24AM 28.6697 -81.1786 337° Northwest 399 459 41,000  Level Miami Center
09:24AM 28.6917 -81.1886 338° Northwest 403 464 41,000  Level Jacksonville Center
09:25AM 28.7967 -81.2342 339° North 403 464 41,000  Level Jacksonville Center
09:26AM 28.9017 -81.2822 338° Northwest 403 464 41,000  Level Jacksonville Center
09:27AM 29.0044 -81.3281 339° North 398 458 41,000  Level Jacksonville Center
09:28AM 29.1072 -81.3764 338° Northwest 398 458 41,000  Level Jacksonville Center
09:29AM 29.2081 -81.4272 336° Northwest 398 458 41,000  Level Jacksonville Center
09:30AM 29.3211 -81.4492 350° North 397 457 41,000  Level Jacksonville Center
09:31AM 29.4381 -81.4667 353° North 407 468 41,000  Level Jacksonville Center
09:32AM 29.5553 -81.4839 353° North 420 483 41,000  Level Jacksonville Center
09:33AM 29.6744 -81.5014 353° North 425 489 41,000  Level Jacksonville Center
09:34AM 29.7914 -81.5214 352° North 425 489 41,000  Level Jacksonville Center
09:35AM 29.9086 -81.5411 352° North 425 489 41,000  Level Jacksonville Center
09:36AM 30.0256 -81.5564 354° North 425 489 41,000  Level Jacksonville Center
09:37AM 30.1406 -81.5739 353° North 425 489 41,000  Level Jacksonville Center
09:38AM 30.2600 -81.5917 353° North 425 489 41,000  Level Jacksonville Center
09:39AM 30.3917 -81.6139 352° North 431 496 41,000  Level Jacksonville Center
09:40AM 30.5128 -81.6314 353° North 431 496 41,000  Level Jacksonville Center
09:41AM 30.6281 -81.6517 351° North 426 490 41,000  Level Jacksonville Center
09:42AM 30.7450 -81.6719 352° North 426 490 41,000  Level Jacksonville Center
09:43AM 30.8600 -81.6922 351° North 426 490 41,000  Level Jacksonville Center
09:44AM 30.9772 -81.7100 353° North 426 490 41,000  Level Jacksonville Center
09:45AM 31.0942 -81.7281 352° North 426 490 41,000  Level Jacksonville Center
09:46AM 31.2114 -81.7508 351° North 425 489 41,000  Level Jacksonville Center
09:47AM 31.3286 -81.7689 353° North 419 482 41,000  Level Jacksonville Center
09:48AM 31.4308 -81.7847 352° North 419 482 41,000  Level Jacksonville Center
09:49AM 31.5606 -81.8050 352° North 419 482 41,000  Level Jacksonville Center
09:50AM 31.6778 -81.8233 352° North 424 488 41,000  Level Jacksonville Center
09:51AM 31.7842 -81.8417 352° North 430 495 41,000  Level Jacksonville Center
09:52AM 31.9139 -81.8622 352° North 430 495 41,000  Level Jacksonville Center
09:53AM 32.0311 -81.8831 351° North 430 495 41,000  Level Jacksonville Center
09:54AM 32.2167 -81.9128 352° North 471 542 41,000  Level Atlanta Center
09:55AM 32.3317 -81.9297 353° North 440 506 41,000  Level Atlanta Center
09:56AM 32.4553 -81.9514 352° North 435 501 41,000  Level Atlanta Center
09:57AM 32.5725 -81.9758 350° North 430 495 41,000  Level Atlanta Center
09:58AM 32.6939 -81.9928 353° North 430 495 41,000  Level Atlanta Center
09:59AM 32.8133 -82.0122 352° North 430 495 41,000  Level Atlanta Center
10:00AM 32.9325 -82.0292 353° North 430 495 41,000  Level Atlanta Center
10:01AM 33.0497 -82.0511 351° North 430 495 41,000  Level Atlanta Center
10:02AM 33.1669 -82.0708 352° North 430 495 41,000  Level Atlanta Center
10:03AM 33.2861 -82.0906 352° North 430 495 41,000  Level Atlanta Center
10:04AM 33.4033 -82.1103 352° North 425 489 41,000  Level Atlanta Center
10:05AM 33.5206 -82.1300 352° North 425 489 41,000  Level Atlanta Center
10:06AM 33.6253 -82.1478 352° North 425 489 41,000  Level Atlanta Center
10:07AM 33.7442 -82.1500 359° North 425 489 41,000  Level Atlanta Center
10:08AM 33.8650 -82.1350 North 425 489 41,000  Level Atlanta Center
10:09AM 33.9878 -82.1122 North 432 497 41,000  Level Atlanta Center
10:10AM 34.1064 -82.0919 North 432 497 41,000  Level Atlanta Center
10:11AM 34.2272 -82.0717 North 432 497 41,000  Level Atlanta Center
10:12AM 34.3458 -82.0511 North 432 497 41,000  Level Atlanta Center
10:13AM 34.4667 -82.0308 North 432 497 41,000  Level Atlanta Center
10:14AM 34.5872 -82.0078 North 427 491 41,000  Level Atlanta Center
10:15AM 34.7058 -81.9869 North 427 491 41,000  Level Atlanta Center
10:16AM 34.8389 -81.9636 North 432 497 41,000  Level Atlanta Center
10:17AM 34.9533 -81.9456 North 427 491 41,000  Level Atlanta Center
10:18AM 35.0761 -81.9272 North 427 491 41,000  Level Atlanta Center
10:19AM 35.1953 -81.9242 North 427 491 41,000  Level Atlanta Center
10:20AM 35.3161 -81.9186 North 421 484 41,000  Level Atlanta Center
10:21AM 35.4225 -81.9133 North 421 484 41,000  Level Atlanta Center
10:22AM 35.5433 -81.9100 North 421 484 41,000  Level Atlanta Center
10:23AM 35.6664 -81.9044 North 426 490 41,000  Level Atlanta Center
10:24AM 35.7850 -81.8961 North 432 497 41,000  Level Atlanta Center
10:25AM 35.9186 -81.8900 North 432 497 41,000  Level Atlanta Center
10:26AM 36.0394 -81.8817 North 437 503 41,000  Level Atlanta Center
10:27AM 36.1622 -81.8758 North 437 503 41,000  Level Atlanta Center
10:29AM 36.3597 -81.8669 North 433 498 41,000  Level Indianapolis Center
10:30AM 36.4803 -81.8608 North 433 498 41,000  Level Indianapolis Center
10:31AM 36.5994 -81.8550 North 431 496 41,000  Level Indianapolis Center
10:32AM 36.7194 -81.8592 358° North 428 493 41,000  Level Indianapolis Center
10:33AM 36.8411 -81.8689 356° North 436 502 41,000  Level Indianapolis Center
10:34AM 36.9617 -81.8753 358° North 433 498 41,000  Level Indianapolis Center
10:35AM 37.1056 -81.8872 356° North 442 509 41,000  Level Indianapolis Center
10:36AM 37.2297 -81.8967 357° North 446 513 41,000  Level Indianapolis Center
10:37AM 37.3542 -81.9053 357° North 449 517 41,000  Level Indianapolis Center
10:38AM 37.4794 -81.9147 357° North 450 518 41,000  Level Indianapolis Center
10:39AM 37.6044 -81.9228 357° North 448 516 41,000  Level Indianapolis Center
10:40AM 37.7294 -81.9314 357° North 449 517 41,000  Level Indianapolis Center
10:41AM 37.8678 -81.9414 357° North 448 516 41,000  Level Indianapolis Center
10:43AM 37.9928 -81.9506 357° North 447 514 41,000 -360 Level Indianapolis Center
10:44AM 38.1192 -81.9592 357° North 451 519 40,300 -1,020 Descending Indianapolis Center
10:45AM 38.2469 -81.9678 357° North 456 525 39,000 -1,320 Descending Indianapolis Center
10:46AM 38.3742 -81.9764 357° North 454 522 37,700 -1,320 Descending Indianapolis Center
10:47AM 38.5019 -81.9853 357° North 455 524 36,400 -1,260 Descending Indianapolis Center
10:48AM 38.6308 -81.9958 356° North 458 527 35,100 -1,020 Descending Indianapolis Center
10:49AM 38.7617 -82.0039 357° North 463 533 34,400 -1,020 Descending Indianapolis Center
10:50AM 38.8872 -82.0117 357° North 449 517 33,100 -900 Descending Indianapolis Center
10:51AM 39.0031 -82.0214 356° North 420 483 32,600 -1,080 Descending Indianapolis Center
10:52AM 39.1464 -82.0325 357° North 427 491 30,900 -1,320 Descending Indianapolis Center
10:53AM 39.2708 -82.0406 357° North 443 510 30,000 -660 Descending Indianapolis Center
10:54AM 39.3903 -82.0503 356° North 431 496 29,600 -900 Descending Indianapolis Center
10:55AM 39.5128 -82.0589 357° North 437 503 28,200 -1,380 Descending Indianapolis Center
10:56AM 39.6389 -82.0669 357° North 449 517 26,800 -1,560 Descending Indianapolis Center
10:57AM 39.7694 -82.0772 357° North 451 519 25,100 -1,620 Descending Indianapolis Center
10:58AM 39.8978 -82.0856 357° North 458 527 23,500 -1,620 Descending Indianapolis Center
10:59AM 40.0217 -82.0814 North 448 516 21,800 -1,260 Descending Indianapolis Center
11:00AM 40.1386 -82.0283 19° North 445 512 21,000 -420 Descending Indianapolis Center
11:01AM 40.2594 -81.9689 21° North 443 510 21,000 -780 Level Indianapolis Center
11:02AM 40.3778 -81.9144 19° North 445 512 19,500 -1,740 Descending Indianapolis Center
11:02AM 40.4203 -81.8947 19° North 437 503 18,800 -2,220 Descending Cleveland Center
11:03AM 40.5333 -81.8425 19° North 437 503 16,700 -2,100 Descending Cleveland Center
11:04AM 40.6444 -81.7900 20° North 432 497 14,700 -1,920 Descending Cleveland Center
11:05AM 40.7344 -81.7531 17° North 400 460 13,200 -1,800 Descending Cleveland Center
11:06AM 40.8539 -81.6947 20° North 400 460 11,200 -1,560 Descending Cleveland Center
11:07AM 40.8811 -81.6844 16° North 380 437 11,000 -240 Descending Cleveland Center
11:07AM 40.9461 -81.6525 20° North 376 433 11,000 -180 Level Cleveland Center
11:08AM 41.0358 -81.6181 16° North 341 392 10,700 -600 Descending Cleveland Center
11:09AM 41.1092 -81.5917 15° North 320 368 9,800 -1,080 Descending Cleveland Center
11:10AM 41.1803 -81.5681 14° North 280 322 8,600 -1,200 Descending Cleveland Center
11:11AM 41.2472 -81.5331 21° North 254 292 7,400 -1,200 Descending Cleveland Center
11:12AM 41.3186 -81.4761 31° Northeast 260 299 6,200 -1,200 Descending Cleveland Center
11:13AM 41.3500 -81.4489 33° Northeast 273 314 5,600 -1,020 Descending Cleveland Center
11:13AM 41.3753 -81.4297 30° Northeast 265 305 5,200 -1,140 Descending Cleveland Center
11:14AM 41.4194 -81.3889 35° Northeast 273 314 4,500 -1,020 Descending Cleveland Center
11:14AM 41.4403 -81.3753 26° Northeast 270 311 4,200 -1,140 Descending Cleveland Center
11:15AM 41.4861 -81.3619 12° North 267 307 3,400 -1,200 Descending Cleveland Center
11:16AM 41.5444 -81.3961 336° Northwest 238 274 2,500 -720 Descending Cleveland Center
11:17AM 41.5858 -81.4189 338° Northwest 167 192 2,100 -720 Descending Cleveland Center
11:18AM 41.5836 -81.4575 266° West 128 147 1,300 -900 Descending Cleveland Center
11:20AM 41.5651 -81.4864 66° East  Level Estimated